sensor_id;sensor_type;location;lat;lon;timestamp;temperature;humidity
8707;DHT22;4390;49.302;9.306;2022-09-03T00:02:42;17.20;74.90
8707;DHT22;4390;49.302;9.306;2022-09-03T00:05:25;17.10;74.90
8707;DHT22;4390;49.302;9.306;2022-09-03T00:10:45;17.00;75.40
8707;DHT22;4390;49.302;9.306;2022-09-03T00:13:19;16.90;75.40
8707;DHT22;4390;49.302;9.306;2022-09-03T00:15:48;16.90;75.60
8707;DHT22;4390;49.302;9.306;2022-09-03T00:18:20;17.00;75.40
8707;DHT22;4390;49.302;9.306;2022-09-03T00:20:57;16.90;75.60
8707;DHT22;4390;49.302;9.306;2022-09-03T00:23:27;16.80;75.70
8707;DHT22;4390;49.302;9.306;2022-09-03T00:28:29;16.80;75.80
8707;DHT22;4390;49.302;9.306;2022-09-03T00:31:20;16.70;76.30
8707;DHT22;4390;49.302;9.306;2022-09-03T00:33:59;16.60;76.40
8707;DHT22;4390;49.302;9.306;2022-09-03T00:36:38;16.40;76.60
8707;DHT22;4390;49.302;9.306;2022-09-03T00:39:16;16.40;76.80
8707;DHT22;4390;49.302;9.306;2022-09-03T00:42:20;16.30;76.80
8707;DHT22;4390;49.302;9.306;2022-09-03T00:47:32;16.40;76.70
8707;DHT22;4390;49.302;9.306;2022-09-03T00:53:13;16.50;76.40
8707;DHT22;4390;49.302;9.306;2022-09-03T00:55:53;16.60;76.50
8707;DHT22;4390;49.302;9.306;2022-09-03T01:01:25;16.50;76.40
8707;DHT22;4390;49.302;9.306;2022-09-03T01:04:25;16.60;76.20
8707;DHT22;4390;49.302;9.306;2022-09-03T01:12:27;16.80;75.80
8707;DHT22;4390;49.302;9.306;2022-09-03T01:18:23;16.80;75.70
8707;DHT22;4390;49.302;9.306;2022-09-03T01:29:36;16.70;76.10
8707;DHT22;4390;49.302;9.306;2022-09-03T01:32:11;16.80;75.80
8707;DHT22;4390;49.302;9.306;2022-09-03T01:35:05;16.90;75.30
8707;DHT22;4390;49.302;9.306;2022-09-03T01:37:50;16.90;75.30
8707;DHT22;4390;49.302;9.306;2022-09-03T01:40:48;16.70;75.80
8707;DHT22;4390;49.302;9.306;2022-09-03T01:46:14;16.60;76.00
8707;DHT22;4390;49.302;9.306;2022-09-03T01:48:59;16.70;76.00
8707;DHT22;4390;49.302;9.306;2022-09-03T01:51:29;16.80;76.10
8707;DHT22;4390;49.302;9.306;2022-09-03T01:54:17;16.90;75.80
8707;DHT22;4390;49.302;9.306;2022-09-03T02:00:04;16.90;75.90
8707;DHT22;4390;49.302;9.306;2022-09-03T02:02:43;17.00;75.90
8707;DHT22;4390;49.302;9.306;2022-09-03T02:05:17;16.90;76.50
8707;DHT22;4390;49.302;9.306;2022-09-03T02:07:47;17.00;76.10
8707;DHT22;4390;49.302;9.306;2022-09-03T02:10:20;17.10;75.60
8707;DHT22;4390;49.302;9.306;2022-09-03T02:12:53;17.20;75.50
8707;DHT22;4390;49.302;9.306;2022-09-03T02:15:24;17.10;75.50
8707;DHT22;4390;49.302;9.306;2022-09-03T02:17:54;17.10;75.80
8707;DHT22;4390;49.302;9.306;2022-09-03T02:20:25;17.10;75.40
8707;DHT22;4390;49.302;9.306;2022-09-03T02:22:53;17.00;75.90
8707;DHT22;4390;49.302;9.306;2022-09-03T02:25:22;17.10;75.70
8707;DHT22;4390;49.302;9.306;2022-09-03T02:27:50;17.30;75.20
8707;DHT22;4390;49.302;9.306;2022-09-03T02:30:17;17.30;74.90
8707;DHT22;4390;49.302;9.306;2022-09-03T02:32:44;17.20;75.40
8707;DHT22;4390;49.302;9.306;2022-09-03T02:35:10;17.20;75.10
8707;DHT22;4390;49.302;9.306;2022-09-03T02:37:39;17.30;75.40
8707;DHT22;4390;49.302;9.306;2022-09-03T02:40:06;17.30;75.30
8707;DHT22;4390;49.302;9.306;2022-09-03T02:42:35;17.40;75.00
8707;DHT22;4390;49.302;9.306;2022-09-03T02:45:26;17.50;75.20
8707;DHT22;4390;49.302;9.306;2022-09-03T02:47:55;17.50;75.40
8707;DHT22;4390;49.302;9.306;2022-09-03T02:50:24;17.50;75.10
8707;DHT22;4390;49.302;9.306;2022-09-03T02:52:51;17.50;75.00
8707;DHT22;4390;49.302;9.306;2022-09-03T02:55:19;17.40;75.10
8707;DHT22;4390;49.302;9.306;2022-09-03T02:57:46;17.40;75.60
8707;DHT22;4390;49.302;9.306;2022-09-03T03:00:13;17.40;74.80
8707;DHT22;4390;49.302;9.306;2022-09-03T03:02:40;17.40;75.10
8707;DHT22;4390;49.302;9.306;2022-09-03T03:05:12;17.40;75.20
8707;DHT22;4390;49.302;9.306;2022-09-03T03:07:41;17.50;74.80
8707;DHT22;4390;49.302;9.306;2022-09-03T03:10:08;17.40;74.90
8707;DHT22;4390;49.302;9.306;2022-09-03T03:12:35;17.40;75.30
8707;DHT22;4390;49.302;9.306;2022-09-03T03:15:03;17.40;75.30
8707;DHT22;4390;49.302;9.306;2022-09-03T03:17:29;17.50;74.90
8707;DHT22;4390;49.302;9.306;2022-09-03T03:19:57;17.50;74.90
8707;DHT22;4390;49.302;9.306;2022-09-03T03:22:23;17.40;74.90
8707;DHT22;4390;49.302;9.306;2022-09-03T03:24:50;17.60;74.80
8707;DHT22;4390;49.302;9.306;2022-09-03T03:27:18;17.60;74.60
8707;DHT22;4390;49.302;9.306;2022-09-03T03:29:45;17.50;74.90
8707;DHT22;4390;49.302;9.306;2022-09-03T03:32:12;17.40;75.00
8707;DHT22;4390;49.302;9.306;2022-09-03T03:34:39;17.50;74.70
8707;DHT22;4390;49.302;9.306;2022-09-03T03:37:05;17.60;74.70
8707;DHT22;4390;49.302;9.306;2022-09-03T03:39:32;17.60;74.50
8707;DHT22;4390;49.302;9.306;2022-09-03T03:41:59;17.50;74.70
8707;DHT22;4390;49.302;9.306;2022-09-03T03:44:25;17.70;74.50
8707;DHT22;4390;49.302;9.306;2022-09-03T03:46:52;17.60;74.90
8707;DHT22;4390;49.302;9.306;2022-09-03T03:49:19;17.50;75.00
8707;DHT22;4390;49.302;9.306;2022-09-03T03:51:46;17.50;75.00
8707;DHT22;4390;49.302;9.306;2022-09-03T03:54:12;17.60;74.80
8707;DHT22;4390;49.302;9.306;2022-09-03T03:56:43;17.60;74.80
8707;DHT22;4390;49.302;9.306;2022-09-03T03:59:12;17.50;74.80
8707;DHT22;4390;49.302;9.306;2022-09-03T04:01:39;17.40;75.20
8707;DHT22;4390;49.302;9.306;2022-09-03T04:04:06;17.40;75.60
8707;DHT22;4390;49.302;9.306;2022-09-03T04:06:33;17.60;75.50
8707;DHT22;4390;49.302;9.306;2022-09-03T04:08:59;17.70;75.30
8707;DHT22;4390;49.302;9.306;2022-09-03T04:11:26;17.70;75.50
8707;DHT22;4390;49.302;9.306;2022-09-03T04:13:53;17.50;75.60
8707;DHT22;4390;49.302;9.306;2022-09-03T04:16:25;17.60;75.90
8707;DHT22;4390;49.302;9.306;2022-09-03T04:18:53;17.50;75.90
8707;DHT22;4390;49.302;9.306;2022-09-03T04:21:26;17.50;75.70
8707;DHT22;4390;49.302;9.306;2022-09-03T04:23:55;17.50;75.60
8707;DHT22;4390;49.302;9.306;2022-09-03T04:26:24;17.50;75.60
8707;DHT22;4390;49.302;9.306;2022-09-03T04:28:52;17.40;75.90
8707;DHT22;4390;49.302;9.306;2022-09-03T04:31:19;17.40;76.00
8707;DHT22;4390;49.302;9.306;2022-09-03T04:33:46;17.40;76.10
8707;DHT22;4390;49.302;9.306;2022-09-03T04:36:16;17.60;75.90
8707;DHT22;4390;49.302;9.306;2022-09-03T04:38:44;17.50;75.80
8707;DHT22;4390;49.302;9.306;2022-09-03T04:41:18;17.40;76.00
8707;DHT22;4390;49.302;9.306;2022-09-03T04:43:45;17.30;76.20
8707;DHT22;4390;49.302;9.306;2022-09-03T04:46:18;17.40;76.30
8707;DHT22;4390;49.302;9.306;2022-09-03T04:48:50;17.40;75.90
8707;DHT22;4390;49.302;9.306;2022-09-03T04:51:20;17.50;76.10
8707;DHT22;4390;49.302;9.306;2022-09-03T04:53:51;17.40;76.30
8707;DHT22;4390;49.302;9.306;2022-09-03T04:56:20;17.30;76.10
8707;DHT22;4390;49.302;9.306;2022-09-03T04:58:48;17.40;75.90
8707;DHT22;4390;49.302;9.306;2022-09-03T05:01:21;17.40;75.80
8707;DHT22;4390;49.302;9.306;2022-09-03T05:03:49;17.30;75.90
8707;DHT22;4390;49.302;9.306;2022-09-03T05:06:18;17.40;76.10
8707;DHT22;4390;49.302;9.306;2022-09-03T05:08:52;17.30;76.40
8707;DHT22;4390;49.302;9.306;2022-09-03T05:11:20;17.50;76.20
8707;DHT22;4390;49.302;9.306;2022-09-03T05:13:49;17.50;75.90
8707;DHT22;4390;49.302;9.306;2022-09-03T05:16:17;17.50;76.30
8707;DHT22;4390;49.302;9.306;2022-09-03T05:18:44;17.50;75.90
8707;DHT22;4390;49.302;9.306;2022-09-03T05:21:14;17.50;76.00
8707;DHT22;4390;49.302;9.306;2022-09-03T05:23:43;17.50;75.80
8707;DHT22;4390;49.302;9.306;2022-09-03T05:26:24;17.50;76.10
8707;DHT22;4390;49.302;9.306;2022-09-03T05:28:56;17.50;76.20
8707;DHT22;4390;49.302;9.306;2022-09-03T05:31:24;17.40;76.60
8707;DHT22;4390;49.302;9.306;2022-09-03T05:33:55;17.40;76.60
8707;DHT22;4390;49.302;9.306;2022-09-03T05:36:26;17.50;76.60
8707;DHT22;4390;49.302;9.306;2022-09-03T05:38:53;17.40;76.70
8707;DHT22;4390;49.302;9.306;2022-09-03T05:41:21;17.40;76.60
8707;DHT22;4390;49.302;9.306;2022-09-03T05:43:50;17.30;76.50
8707;DHT22;4390;49.302;9.306;2022-09-03T05:46:29;17.60;76.10
8707;DHT22;4390;49.302;9.306;2022-09-03T05:49:06;17.60;76.00
8707;DHT22;4390;49.302;9.306;2022-09-03T05:51:34;17.60;76.10
8707;DHT22;4390;49.302;9.306;2022-09-03T05:54:01;17.60;76.70
8707;DHT22;4390;49.302;9.306;2022-09-03T05:56:30;17.70;76.20
8707;DHT22;4390;49.302;9.306;2022-09-03T05:58:59;17.70;75.70
8707;DHT22;4390;49.302;9.306;2022-09-03T06:01:29;17.40;76.60
8707;DHT22;4390;49.302;9.306;2022-09-03T06:04:10;17.30;77.50
8707;DHT22;4390;49.302;9.306;2022-09-03T06:06:40;17.40;76.90
8707;DHT22;4390;49.302;9.306;2022-09-03T06:09:12;17.60;77.30
8707;DHT22;4390;49.302;9.306;2022-09-03T06:11:40;17.80;77.50
8707;DHT22;4390;49.302;9.306;2022-09-03T06:14:11;17.90;77.20
8707;DHT22;4390;49.302;9.306;2022-09-03T06:16:43;17.80;77.10
8707;DHT22;4390;49.302;9.306;2022-09-03T06:19:11;17.80;76.80
8707;DHT22;4390;49.302;9.306;2022-09-03T06:21:40;18.00;76.50
8707;DHT22;4390;49.302;9.306;2022-09-03T06:24:14;18.10;76.10
8707;DHT22;4390;49.302;9.306;2022-09-03T06:26:42;18.20;76.10
8707;DHT22;4390;49.302;9.306;2022-09-03T06:29:09;18.40;76.60
8707;DHT22;4390;49.302;9.306;2022-09-03T06:31:36;18.40;76.00
8707;DHT22;4390;49.302;9.306;2022-09-03T06:34:03;18.50;76.70
8707;DHT22;4390;49.302;9.306;2022-09-03T06:36:31;18.80;75.90
8707;DHT22;4390;49.302;9.306;2022-09-03T06:38:58;18.80;75.00
8707;DHT22;4390;49.302;9.306;2022-09-03T06:41:27;18.80;75.00
8707;DHT22;4390;49.302;9.306;2022-09-03T06:44:00;18.80;75.20
8707;DHT22;4390;49.302;9.306;2022-09-03T06:46:31;18.90;74.80
8707;DHT22;4390;49.302;9.306;2022-09-03T06:48:58;18.90;74.90
8707;DHT22;4390;49.302;9.306;2022-09-03T06:51:26;18.90;74.80
8707;DHT22;4390;49.302;9.306;2022-09-03T06:54:09;19.10;74.90
8707;DHT22;4390;49.302;9.306;2022-09-03T06:56:38;19.20;74.40
8707;DHT22;4390;49.302;9.306;2022-09-03T06:59:09;19.20;74.60
8707;DHT22;4390;49.302;9.306;2022-09-03T07:01:36;19.30;74.40
8707;DHT22;4390;49.302;9.306;2022-09-03T07:04:10;19.20;74.40
8707;DHT22;4390;49.302;9.306;2022-09-03T07:06:38;19.00;74.80
8707;DHT22;4390;49.302;9.306;2022-09-03T07:09:07;19.00;75.20
8707;DHT22;4390;49.302;9.306;2022-09-03T07:11:35;19.10;74.90
8707;DHT22;4390;49.302;9.306;2022-09-03T07:14:03;19.20;75.10
8707;DHT22;4390;49.302;9.306;2022-09-03T07:16:35;19.30;76.70
8707;DHT22;4390;49.302;9.306;2022-09-03T07:19:03;19.30;78.50
8707;DHT22;4390;49.302;9.306;2022-09-03T07:21:32;19.30;79.10
8707;DHT22;4390;49.302;9.306;2022-09-03T07:24:02;19.20;79.70
8707;DHT22;4390;49.302;9.306;2022-09-03T07:26:36;19.10;80.50
8707;DHT22;4390;49.302;9.306;2022-09-03T07:29:05;19.20;79.60
8707;DHT22;4390;49.302;9.306;2022-09-03T07:31:35;19.40;78.40
8707;DHT22;4390;49.302;9.306;2022-09-03T07:34:05;19.40;78.00
8707;DHT22;4390;49.302;9.306;2022-09-03T07:36:40;19.40;77.80
8707;DHT22;4390;49.302;9.306;2022-09-03T07:39:09;19.40;77.50
8707;DHT22;4390;49.302;9.306;2022-09-03T07:41:40;19.70;77.60
8707;DHT22;4390;49.302;9.306;2022-09-03T07:44:09;19.70;76.70
8707;DHT22;4390;49.302;9.306;2022-09-03T07:46:37;19.70;76.50
8707;DHT22;4390;49.302;9.306;2022-09-03T07:49:04;19.40;76.70
8707;DHT22;4390;49.302;9.306;2022-09-03T07:51:36;19.50;76.50
8707;DHT22;4390;49.302;9.306;2022-09-03T07:54:05;19.50;76.10
8707;DHT22;4390;49.302;9.306;2022-09-03T07:56:34;19.70;76.10
8707;DHT22;4390;49.302;9.306;2022-09-03T07:59:02;19.70;75.90
8707;DHT22;4390;49.302;9.306;2022-09-03T08:01:29;19.80;76.40
8707;DHT22;4390;49.302;9.306;2022-09-03T08:04:00;19.90;76.20
8707;DHT22;4390;49.302;9.306;2022-09-03T08:06:29;19.90;76.50
8707;DHT22;4390;49.302;9.306;2022-09-03T08:09:05;20.00;76.20
8707;DHT22;4390;49.302;9.306;2022-09-03T08:11:35;20.20;76.10
8707;DHT22;4390;49.302;9.306;2022-09-03T08:14:07;20.20;75.60
8707;DHT22;4390;49.302;9.306;2022-09-03T08:19:02;20.30;78.30
8707;DHT22;4390;49.302;9.306;2022-09-03T08:21:30;20.40;79.50
8707;DHT22;4390;49.302;9.306;2022-09-03T08:23:57;20.40;79.60
8707;DHT22;4390;49.302;9.306;2022-09-03T08:26:32;20.40;78.90
8707;DHT22;4390;49.302;9.306;2022-09-03T08:28:59;20.70;79.10
8707;DHT22;4390;49.302;9.306;2022-09-03T08:31:27;20.70;77.90
8707;DHT22;4390;49.302;9.306;2022-09-03T08:33:56;20.70;76.90
8707;DHT22;4390;49.302;9.306;2022-09-03T08:36:28;20.80;76.30
8707;DHT22;4390;49.302;9.306;2022-09-03T08:38:57;20.90;75.10
8707;DHT22;4390;49.302;9.306;2022-09-03T08:46:48;20.70;78.00
8707;DHT22;4390;49.302;9.306;2022-09-03T08:52:01;20.50;78.30
8707;DHT22;4390;49.302;9.306;2022-09-03T08:54:30;20.50;80.80
8707;DHT22;4390;49.302;9.306;2022-09-03T08:57:00;20.90;80.90
8707;DHT22;4390;49.302;9.306;2022-09-03T08:59:29;21.00;79.80
8707;DHT22;4390;49.302;9.306;2022-09-03T09:04:58;20.80;79.20
8707;DHT22;4390;49.302;9.306;2022-09-03T09:07:55;20.80;79.10
8707;DHT22;4390;49.302;9.306;2022-09-03T09:10:40;20.80;77.60
8707;DHT22;4390;49.302;9.306;2022-09-03T09:13:45;20.70;78.40
8707;DHT22;4390;49.302;9.306;2022-09-03T09:22:21;20.90;77.00
8707;DHT22;4390;49.302;9.306;2022-09-03T09:24:51;21.20;76.70
8707;DHT22;4390;49.302;9.306;2022-09-03T09:27:19;21.20;76.90
8707;DHT22;4390;49.302;9.306;2022-09-03T09:29:48;21.20;76.30
8707;DHT22;4390;49.302;9.306;2022-09-03T09:32:18;21.30;76.90
8707;DHT22;4390;49.302;9.306;2022-09-03T09:34:47;21.40;77.10
8707;DHT22;4390;49.302;9.306;2022-09-03T09:37:18;21.30;75.80
8707;DHT22;4390;49.302;9.306;2022-09-03T09:39:57;21.00;76.10
8707;DHT22;4390;49.302;9.306;2022-09-03T09:42:25;20.90;77.30
8707;DHT22;4390;49.302;9.306;2022-09-03T09:44:52;21.00;77.10
8707;DHT22;4390;49.302;9.306;2022-09-03T09:47:29;20.70;76.70
8707;DHT22;4390;49.302;9.306;2022-09-03T09:49:58;20.20;78.30
8707;DHT22;4390;49.302;9.306;2022-09-03T09:52:27;20.10;78.50
8707;DHT22;4390;49.302;9.306;2022-09-03T09:55:13;19.90;79.50
8707;DHT22;4390;49.302;9.306;2022-09-03T09:57:40;20.00;79.60
8707;DHT22;4390;49.302;9.306;2022-09-03T10:00:13;20.30;79.80
8707;DHT22;4390;49.302;9.306;2022-09-03T10:02:48;20.70;79.30
8707;DHT22;4390;49.302;9.306;2022-09-03T10:05:23;21.00;78.20
8707;DHT22;4390;49.302;9.306;2022-09-03T10:08:01;21.50;77.40
8707;DHT22;4390;49.302;9.306;2022-09-03T10:10:33;22.00;76.80
8707;DHT22;4390;49.302;9.306;2022-09-03T10:13:20;22.30;76.80
8707;DHT22;4390;49.302;9.306;2022-09-03T10:21:07;22.70;75.20
8707;DHT22;4390;49.302;9.306;2022-09-03T10:24:03;22.90;75.00
8707;DHT22;4390;49.302;9.306;2022-09-03T10:26:42;23.10;75.00
8707;DHT22;4390;49.302;9.306;2022-09-03T10:29:20;23.30;74.60
8707;DHT22;4390;49.302;9.306;2022-09-03T10:32:17;23.40;74.50
8707;DHT22;4390;49.302;9.306;2022-09-03T10:37:49;24.10;73.40
8707;DHT22;4390;49.302;9.306;2022-09-03T10:43:03;24.20;73.20
8707;DHT22;4390;49.302;9.306;2022-09-03T10:51:00;24.80;72.50
8707;DHT22;4390;49.302;9.306;2022-09-03T11:00:29;25.40;71.60
8707;DHT22;4390;49.302;9.306;2022-09-03T11:05:36;26.40;70.20
8707;DHT22;4390;49.302;9.306;2022-09-03T11:10:59;26.20;70.80
8707;DHT22;4390;49.302;9.306;2022-09-03T11:13:33;26.20;70.60
8707;DHT22;4390;49.302;9.306;2022-09-03T11:16:16;26.30;70.20
8707;DHT22;4390;49.302;9.306;2022-09-03T11:18:52;26.00;70.60
8707;DHT22;4390;49.302;9.306;2022-09-03T11:21:25;25.90;70.30
8707;DHT22;4390;49.302;9.306;2022-09-03T11:26:35;25.60;71.30
8707;DHT22;4390;49.302;9.306;2022-09-03T11:29:14;25.60;71.60
8707;DHT22;4390;49.302;9.306;2022-09-03T11:31:53;25.80;70.90
8707;DHT22;4390;49.302;9.306;2022-09-03T11:37:18;25.50;70.90
8707;DHT22;4390;49.302;9.306;2022-09-03T11:42:38;25.40;71.20
8707;DHT22;4390;49.302;9.306;2022-09-03T11:47:52;25.60;70.80
8707;DHT22;4390;49.302;9.306;2022-09-03T11:50:30;25.40;71.50
8707;DHT22;4390;49.302;9.306;2022-09-03T11:53:21;25.40;71.50
8707;DHT22;4390;49.302;9.306;2022-09-03T11:55:58;25.50;71.70
8707;DHT22;4390;49.302;9.306;2022-09-03T11:58:35;25.70;71.30
8707;DHT22;4390;49.302;9.306;2022-09-03T12:01:07;25.60;70.70
8707;DHT22;4390;49.302;9.306;2022-09-03T12:03:50;25.80;70.50
8707;DHT22;4390;49.302;9.306;2022-09-03T12:15:30;26.70;69.00
8707;DHT22;4390;49.302;9.306;2022-09-03T12:18:07;26.60;69.10
8707;DHT22;4390;49.302;9.306;2022-09-03T12:21:09;26.60;69.10
8707;DHT22;4390;49.302;9.306;2022-09-03T12:23:47;26.50;69.80
8707;DHT22;4390;49.302;9.306;2022-09-03T12:26:25;26.30;70.50
8707;DHT22;4390;49.302;9.306;2022-09-03T12:28:57;26.20;70.70
8707;DHT22;4390;49.302;9.306;2022-09-03T12:31:30;25.80;71.60
8707;DHT22;4390;49.302;9.306;2022-09-03T12:34:10;25.20;72.60
8707;DHT22;4390;49.302;9.306;2022-09-03T12:36:49;25.20;72.90
8707;DHT22;4390;49.302;9.306;2022-09-03T12:39:22;25.10;73.10
8707;DHT22;4390;49.302;9.306;2022-09-03T12:42:16;24.90;73.10
8707;DHT22;4390;49.302;9.306;2022-09-03T12:44:45;24.50;73.80
8707;DHT22;4390;49.302;9.306;2022-09-03T12:50:09;24.60;74.10
8707;DHT22;4390;49.302;9.306;2022-09-03T12:52:47;24.80;73.80
8707;DHT22;4390;49.302;9.306;2022-09-03T13:00:47;25.10;73.90
8707;DHT22;4390;49.302;9.306;2022-09-03T13:03:21;24.80;74.40
8707;DHT22;4390;49.302;9.306;2022-09-03T13:05:53;24.60;74.70
8707;DHT22;4390;49.302;9.306;2022-09-03T13:08:28;24.70;74.70
8707;DHT22;4390;49.302;9.306;2022-09-03T13:10:59;24.50;75.20
8707;DHT22;4390;49.302;9.306;2022-09-03T13:13:32;24.60;74.80
8707;DHT22;4390;49.302;9.306;2022-09-03T13:24:08;25.20;74.40
8707;DHT22;4390;49.302;9.306;2022-09-03T13:26:48;25.20;74.30
8707;DHT22;4390;49.302;9.306;2022-09-03T13:34:56;26.30;72.00
8707;DHT22;4390;49.302;9.306;2022-09-03T13:43:02;26.60;70.10
8707;DHT22;4390;49.302;9.306;2022-09-03T13:45:38;26.70;70.10
8707;DHT22;4390;49.302;9.306;2022-09-03T13:48:12;26.60;70.20
8707;DHT22;4390;49.302;9.306;2022-09-03T13:51:06;26.20;70.60
8707;DHT22;4390;49.302;9.306;2022-09-03T13:56:46;26.30;70.50
8707;DHT22;4390;49.302;9.306;2022-09-03T13:59:26;26.50;71.20
8707;DHT22;4390;49.302;9.306;2022-09-03T14:07:33;26.30;70.60
8707;DHT22;4390;49.302;9.306;2022-09-03T14:12:43;26.40;70.50
8707;DHT22;4390;49.302;9.306;2022-09-03T14:20:36;25.90;70.60
8707;DHT22;4390;49.302;9.306;2022-09-03T14:23:27;25.70;70.70
8707;DHT22;4390;49.302;9.306;2022-09-03T14:26:00;25.30;70.90
8707;DHT22;4390;49.302;9.306;2022-09-03T14:28:37;25.30;70.90
8707;DHT22;4390;49.302;9.306;2022-09-03T14:31:46;25.20;71.10
8707;DHT22;4390;49.302;9.306;2022-09-03T14:47:59;25.90;68.90
8707;DHT22;4390;49.302;9.306;2022-09-03T14:59:11;24.90;71.60
8707;DHT22;4390;49.302;9.306;2022-09-03T15:01:34;24.00;74.40
8707;DHT22;4390;49.302;9.306;2022-09-03T15:10:17;22.40;80.00
8707;DHT22;4390;49.302;9.306;2022-09-03T15:12:54;21.70;81.90
8707;DHT22;4390;49.302;9.306;2022-09-03T15:18:45;20.20;86.30
8707;DHT22;4390;49.302;9.306;2022-09-03T15:21:28;20.10;87.50
8707;DHT22;4390;49.302;9.306;2022-09-03T15:24:09;20.00;87.60
8707;DHT22;4390;49.302;9.306;2022-09-03T15:26:52;19.90;89.10
8707;DHT22;4390;49.302;9.306;2022-09-03T15:44:17;16.90;98.30
8707;DHT22;4390;49.302;9.306;2022-09-03T15:49:43;17.00;98.30
8707;DHT22;4390;49.302;9.306;2022-09-03T15:52:29;17.30;98.30
8707;DHT22;4390;49.302;9.306;2022-09-03T15:57:40;17.70;98.30
8707;DHT22;4390;49.302;9.306;2022-09-03T16:00:16;17.80;98.30
8707;DHT22;4390;49.302;9.306;2022-09-03T16:03:08;18.20;98.30
8707;DHT22;4390;49.302;9.306;2022-09-03T16:05:54;18.50;98.30
8707;DHT22;4390;49.302;9.306;2022-09-03T16:08:28;18.60;98.30
8707;DHT22;4390;49.302;9.306;2022-09-03T16:11:06;18.40;98.30
8707;DHT22;4390;49.302;9.306;2022-09-03T16:13:48;18.40;98.30
8707;DHT22;4390;49.302;9.306;2022-09-03T16:16:29;18.30;95.70
8707;DHT22;4390;49.302;9.306;2022-09-03T16:19:23;18.30;97.20
8707;DHT22;4390;49.302;9.306;2022-09-03T16:22:03;18.50;98.10
8707;DHT22;4390;49.302;9.306;2022-09-03T16:24:53;18.80;97.90
8707;DHT22;4390;49.302;9.306;2022-09-03T16:27:35;19.10;97.80
8707;DHT22;4390;49.302;9.306;2022-09-03T16:30:10;19.10;98.10
8707;DHT22;4390;49.302;9.306;2022-09-03T16:33:01;19.00;98.00
8707;DHT22;4390;49.302;9.306;2022-09-03T16:36:12;19.10;97.40
8707;DHT22;4390;49.302;9.306;2022-09-03T16:38:59;18.90;97.80
8707;DHT22;4390;49.302;9.306;2022-09-03T16:41:34;18.80;98.00
8707;DHT22;4390;49.302;9.306;2022-09-03T16:46:44;18.50;98.30
8707;DHT22;4390;49.302;9.306;2022-09-03T16:52:06;18.50;97.50
8707;DHT22;4390;49.302;9.306;2022-09-03T16:57:53;18.60;98.30
8707;DHT22;4390;49.302;9.306;2022-09-03T17:00:26;18.50;98.30
8707;DHT22;4390;49.302;9.306;2022-09-03T17:03:22;18.40;98.30
8707;DHT22;4390;49.302;9.306;2022-09-03T17:09:02;18.30;98.30
8707;DHT22;4390;49.302;9.306;2022-09-03T17:14:49;18.10;98.30
8707;DHT22;4390;49.302;9.306;2022-09-03T17:17:36;17.90;98.30
8707;DHT22;4390;49.302;9.306;2022-09-03T17:20:23;18.20;98.30
8707;DHT22;4390;49.302;9.306;2022-09-03T17:25:35;18.40;98.30
8707;DHT22;4390;49.302;9.306;2022-09-03T17:28:28;18.30;98.30
8707;DHT22;4390;49.302;9.306;2022-09-03T17:34:36;17.90;98.30
8707;DHT22;4390;49.302;9.306;2022-09-03T17:43:17;18.10;98.30
8707;DHT22;4390;49.302;9.306;2022-09-03T18:02:27;18.40;98.30
8707;DHT22;4390;49.302;9.306;2022-09-03T18:07:41;18.10;98.30
8707;DHT22;4390;49.302;9.306;2022-09-03T18:15:48;17.70;98.30
8707;DHT22;4390;49.302;9.306;2022-09-03T18:18:31;17.70;98.30
8707;DHT22;4390;49.302;9.306;2022-09-03T18:21:01;17.90;98.30
8707;DHT22;4390;49.302;9.306;2022-09-03T18:24:22;18.10;98.30
8707;DHT22;4390;49.302;9.306;2022-09-03T18:27:13;18.20;98.30
8707;DHT22;4390;49.302;9.306;2022-09-03T18:30:04;18.10;98.30
8707;DHT22;4390;49.302;9.306;2022-09-03T18:32:51;18.10;98.30
8707;DHT22;4390;49.302;9.306;2022-09-03T18:35:36;18.10;98.30
8707;DHT22;4390;49.302;9.306;2022-09-03T18:38:27;17.90;98.30
8707;DHT22;4390;49.302;9.306;2022-09-03T18:44:39;17.80;98.30
8707;DHT22;4390;49.302;9.306;2022-09-03T18:48:20;17.90;98.30
8707;DHT22;4390;49.302;9.306;2022-09-03T18:51:24;18.00;98.30
8707;DHT22;4390;49.302;9.306;2022-09-03T19:00:55;18.00;98.30
8707;DHT22;4390;49.302;9.306;2022-09-03T19:06:39;18.00;98.30
8707;DHT22;4390;49.302;9.306;2022-09-03T19:16:18;17.90;98.30
8707;DHT22;4390;49.302;9.306;2022-09-03T19:22:08;17.80;98.30
8707;DHT22;4390;49.302;9.306;2022-09-03T19:25:09;17.90;98.30
8707;DHT22;4390;49.302;9.306;2022-09-03T19:37:08;18.00;98.30
8707;DHT22;4390;49.302;9.306;2022-09-03T19:43:23;17.90;98.30
8707;DHT22;4390;49.302;9.306;2022-09-03T19:46:32;17.70;98.30
8707;DHT22;4390;49.302;9.306;2022-09-03T19:52:57;17.70;98.30
8707;DHT22;4390;49.302;9.306;2022-09-03T19:55:53;17.70;98.30
8707;DHT22;4390;49.302;9.306;2022-09-03T19:58:56;17.50;98.30
8707;DHT22;4390;49.302;9.306;2022-09-03T20:01:42;17.60;98.30
8707;DHT22;4390;49.302;9.306;2022-09-03T20:04:37;17.80;98.30
8707;DHT22;4390;49.302;9.306;2022-09-03T20:07:24;17.90;98.30
8707;DHT22;4390;49.302;9.306;2022-09-03T20:10:11;18.00;98.30
8707;DHT22;4390;49.302;9.306;2022-09-03T20:13:06;17.90;98.30
8707;DHT22;4390;49.302;9.306;2022-09-03T20:24:31;17.50;98.30
8707;DHT22;4390;49.302;9.306;2022-09-03T20:30:06;18.00;98.30
8707;DHT22;4390;49.302;9.306;2022-09-03T20:33:05;17.90;98.30
8707;DHT22;4390;49.302;9.306;2022-09-03T20:35:46;18.10;98.30
8707;DHT22;4390;49.302;9.306;2022-09-03T20:44:05;17.60;98.30
8707;DHT22;4390;49.302;9.306;2022-09-03T20:52:16;17.80;98.30
8707;DHT22;4390;49.302;9.306;2022-09-03T20:55:03;17.90;98.30
8707;DHT22;4390;49.302;9.306;2022-09-03T20:57:43;17.90;98.30
8707;DHT22;4390;49.302;9.306;2022-09-03T21:00:14;17.80;98.30
8707;DHT22;4390;49.302;9.306;2022-09-03T21:09:12;17.30;98.30
8707;DHT22;4390;49.302;9.306;2022-09-03T21:11:49;17.40;98.30
8707;DHT22;4390;49.302;9.306;2022-09-03T21:19:42;17.70;98.30
8707;DHT22;4390;49.302;9.306;2022-09-03T21:25:17;17.80;98.30
8707;DHT22;4390;49.302;9.306;2022-09-03T21:27:53;17.80;98.30
8707;DHT22;4390;49.302;9.306;2022-09-03T21:30:20;17.70;98.30
8707;DHT22;4390;49.302;9.306;2022-09-03T21:32:55;17.70;98.30
8707;DHT22;4390;49.302;9.306;2022-09-03T21:35:30;17.60;98.30
8707;DHT22;4390;49.302;9.306;2022-09-03T21:38:04;17.50;98.30
8707;DHT22;4390;49.302;9.306;2022-09-03T21:40:34;17.50;98.30
8707;DHT22;4390;49.302;9.306;2022-09-03T21:47:01;17.40;98.30
8707;DHT22;4390;49.302;9.306;2022-09-03T21:49:37;17.50;98.30
8707;DHT22;4390;49.302;9.306;2022-09-03T21:55:25;17.30;98.30
8707;DHT22;4390;49.302;9.306;2022-09-03T22:01:04;17.20;98.30
8707;DHT22;4390;49.302;9.306;2022-09-03T22:03:32;17.10;98.30
8707;DHT22;4390;49.302;9.306;2022-09-03T22:06:07;17.00;98.30
8707;DHT22;4390;49.302;9.306;2022-09-03T22:11:19;17.00;98.30
8707;DHT22;4390;49.302;9.306;2022-09-03T22:13:55;16.90;98.30
8707;DHT22;4390;49.302;9.306;2022-09-03T22:19:05;17.10;98.30
8707;DHT22;4390;49.302;9.306;2022-09-03T22:21:55;17.10;98.30
8707;DHT22;4390;49.302;9.306;2022-09-03T22:24:31;17.30;98.30
8707;DHT22;4390;49.302;9.306;2022-09-03T22:40:54;17.00;98.30
8707;DHT22;4390;49.302;9.306;2022-09-03T22:46:07;17.00;98.30
8707;DHT22;4390;49.302;9.306;2022-09-03T22:57:13;16.80;98.30
8707;DHT22;4390;49.302;9.306;2022-09-03T23:00:04;16.80;98.30
8707;DHT22;4390;49.302;9.306;2022-09-03T23:02:32;16.70;98.30
8707;DHT22;4390;49.302;9.306;2022-09-03T23:05:09;16.60;98.30
8707;DHT22;4390;49.302;9.306;2022-09-03T23:08:02;16.50;98.30